sensor_id;sensor_type;location;lat;lon;timestamp;P1;durP1;ratioP1;P2;durP2;ratioP2
6436;SDS011;3251;53.550;9.918;2023-12-20T05:56:38;17.43;;;2.70;;
6436;SDS011;3251;53.550;9.918;2023-12-20T05:59:04;9.30;;;2.33;;
6436;SDS011;3251;53.550;9.918;2023-12-20T06:01:30;22.40;;;3.40;;
6436;SDS011;3251;53.550;9.918;2023-12-20T06:03:56;17.43;;;2.70;;
6436;SDS011;3251;53.550;9.918;2023-12-20T06:06:23;18.20;;;3.70;;
6436;SDS011;3251;53.550;9.918;2023-12-20T06:08:55;29.70;;;4.50;;
6436;SDS011;3251;53.550;9.918;2023-12-20T06:11:21;26.53;;;5.63;;
6436;SDS011;3251;53.550;9.918;2023-12-20T06:13:47;12.23;;;2.57;;
6436;SDS011;3251;53.550;9.918;2023-12-20T06:16:14;11.73;;;3.63;;
6436;SDS011;3251;53.550;9.918;2023-12-20T06:18:40;24.40;;;3.50;;
6436;SDS011;3251;53.550;9.918;2023-12-20T06:21:06;17.70;;;3.63;;
6436;SDS011;3251;53.550;9.918;2023-12-20T06:23:33;15.10;;;3.43;;
6436;SDS011;3251;53.550;9.918;2023-12-20T06:25:59;12.60;;;2.13;;
6436;SDS011;3251;53.550;9.918;2023-12-20T06:28:25;16.87;;;3.60;;
6436;SDS011;3251;53.550;9.918;2023-12-20T06:30:51;21.80;;;3.23;;
6436;SDS011;3251;53.550;9.918;2023-12-20T06:33:23;12.00;;;2.70;;
6436;SDS011;3251;53.550;9.918;2023-12-20T06:35:49;20.90;;;3.17;;
6436;SDS011;3251;53.550;9.918;2023-12-20T06:38:17;7.53;;;2.50;;
6436;SDS011;3251;53.550;9.918;2023-12-20T06:40:43;25.80;;;3.20;;
6436;SDS011;3251;53.550;9.918;2023-12-20T06:43:12;11.50;;;2.90;;
6436;SDS011;3251;53.550;9.918;2023-12-20T06:45:41;14.23;;;2.63;;
6436;SDS011;3251;53.550;9.918;2023-12-20T06:48:07;7.70;;;2.60;;
6436;SDS011;3251;53.550;9.918;2023-12-20T06:50:35;30.03;;;3.23;;
6436;SDS011;3251;53.550;9.918;2023-12-20T06:53:05;9.43;;;3.00;;
6436;SDS011;3251;53.550;9.918;2023-12-20T06:55:32;19.77;;;3.13;;
6436;SDS011;3251;53.550;9.918;2023-12-20T06:57:59;10.00;;;2.20;;
6436;SDS011;3251;53.550;9.918;2023-12-20T07:00:25;13.60;;;2.93;;
6436;SDS011;3251;53.550;9.918;2023-12-20T07:02:51;6.40;;;2.00;;
6436;SDS011;3251;53.550;9.918;2023-12-20T07:05:17;9.70;;;3.20;;
6436;SDS011;3251;53.550;9.918;2023-12-20T07:07:45;11.57;;;2.53;;
6436;SDS011;3251;53.550;9.918;2023-12-20T07:10:12;28.53;;;3.50;;
6436;SDS011;3251;53.550;9.918;2023-12-20T07:12:38;10.53;;;2.80;;
6436;SDS011;3251;53.550;9.918;2023-12-20T07:15:04;17.80;;;2.80;;
6436;SDS011;3251;53.550;9.918;2023-12-20T07:17:32;30.07;;;4.00;;
6436;SDS011;3251;53.550;9.918;2023-12-20T07:19:58;9.80;;;3.00;;
6436;SDS011;3251;53.550;9.918;2023-12-20T07:22:29;13.33;;;2.73;;
6436;SDS011;3251;53.550;9.918;2023-12-20T07:24:57;7.53;;;2.60;;
6436;SDS011;3251;53.550;9.918;2023-12-20T07:27:23;8.90;;;2.07;;
6436;SDS011;3251;53.550;9.918;2023-12-20T07:29:49;8.33;;;2.77;;
6436;SDS011;3251;53.550;9.918;2023-12-20T07:32:16;25.27;;;3.77;;
6436;SDS011;3251;53.550;9.918;2023-12-20T07:34:42;17.67;;;3.30;;
6436;SDS011;3251;53.550;9.918;2023-12-20T07:37:08;16.33;;;3.23;;
6436;SDS011;3251;53.550;9.918;2023-12-20T07:39:37;17.63;;;3.67;;
6436;SDS011;3251;53.550;9.918;2023-12-20T07:42:03;32.40;;;2.93;;
6436;SDS011;3251;53.550;9.918;2023-12-20T07:44:29;15.83;;;3.10;;
6436;SDS011;3251;53.550;9.918;2023-12-20T07:46:59;11.43;;;3.13;;
6436;SDS011;3251;53.550;9.918;2023-12-20T07:49:26;29.93;;;3.47;;
6436;SDS011;3251;53.550;9.918;2023-12-20T07:51:52;20.03;;;3.17;;
6436;SDS011;3251;53.550;9.918;2023-12-20T07:54:18;16.87;;;3.80;;
6436;SDS011;3251;53.550;9.918;2023-12-20T07:56:46;9.03;;;2.40;;
6436;SDS011;3251;53.550;9.918;2023-12-20T07:59:12;11.30;;;3.40;;
6436;SDS011;3251;53.550;9.918;2023-12-20T08:01:41;26.13;;;4.03;;
6436;SDS011;3251;53.550;9.918;2023-12-20T08:04:07;10.97;;;3.37;;
6436;SDS011;3251;53.550;9.918;2023-12-20T08:06:34;14.50;;;3.33;;
6436;SDS011;3251;53.550;9.918;2023-12-20T08:09:00;8.73;;;2.60;;
6436;SDS011;3251;53.550;9.918;2023-12-20T08:11:26;25.17;;;4.23;;
6436;SDS011;3251;53.550;9.918;2023-12-20T08:13:52;26.53;;;5.13;;
6436;SDS011;3251;53.550;9.918;2023-12-20T08:16:18;22.87;;;3.60;;
6436;SDS011;3251;53.550;9.918;2023-12-20T08:18:45;13.37;;;4.27;;
6436;SDS011;3251;53.550;9.918;2023-12-20T08:21:11;31.10;;;3.57;;
6436;SDS011;3251;53.550;9.918;2023-12-20T08:23:37;17.07;;;2.73;;
6436;SDS011;3251;53.550;9.918;2023-12-20T08:26:07;31.80;;;3.20;;
6436;SDS011;3251;53.550;9.918;2023-12-20T08:28:33;17.07;;;4.63;;
6436;SDS011;3251;53.550;9.918;2023-12-20T08:31:01;32.53;;;4.33;;
6436;SDS011;3251;53.550;9.918;2023-12-20T08:33:27;32.63;;;5.70;;
6436;SDS011;3251;53.550;9.918;2023-12-20T08:35:53;30.67;;;4.83;;
6436;SDS011;3251;53.550;9.918;2023-12-20T08:38:20;24.27;;;4.37;;
6436;SDS011;3251;53.550;9.918;2023-12-20T08:40:46;18.43;;;3.20;;
6436;SDS011;3251;53.550;9.918;2023-12-20T08:43:12;22.97;;;2.80;;
6436;SDS011;3251;53.550;9.918;2023-12-20T08:45:38;18.63;;;2.43;;
6436;SDS011;3251;53.550;9.918;2023-12-20T08:48:05;19.30;;;4.07;;
6436;SDS011;3251;53.550;9.918;2023-12-20T08:50:31;25.43;;;3.93;;
6436;SDS011;3251;53.550;9.918;2023-12-20T08:52:57;15.17;;;3.00;;
6436;SDS011;3251;53.550;9.918;2023-12-20T08:55:23;21.20;;;3.87;;
6436;SDS011;3251;53.550;9.918;2023-12-20T08:57:50;14.60;;;3.70;;
6436;SDS011;3251;53.550;9.918;2023-12-20T09:00:16;14.17;;;2.70;;
6436;SDS011;3251;53.550;9.918;2023-12-20T09:02:44;18.97;;;2.30;;
6436;SDS011;3251;53.550;9.918;2023-12-20T09:05:10;13.37;;;2.93;;
6436;SDS011;3251;53.550;9.918;2023-12-20T09:07:37;22.23;;;1.90;;
6436;SDS011;3251;53.550;9.918;2023-12-20T09:10:03;6.63;;;2.00;;
6436;SDS011;3251;53.550;9.918;2023-12-20T09:12:29;8.00;;;2.50;;
6436;SDS011;3251;53.550;9.918;2023-12-20T09:14:55;14.33;;;2.90;;
6436;SDS011;3251;53.550;9.918;2023-12-20T09:17:21;31.67;;;4.20;;
6436;SDS011;3251;53.550;9.918;2023-12-20T09:19:48;11.07;;;3.80;;
6436;SDS011;3251;53.550;9.918;2023-12-20T09:22:14;4.53;;;1.50;;
6436;SDS011;3251;53.550;9.918;2023-12-20T09:24:42;17.70;;;2.63;;
6436;SDS011;3251;53.550;9.918;2023-12-20T09:27:08;14.40;;;2.97;;
6436;SDS011;3251;53.550;9.918;2023-12-20T09:29:35;7.40;;;2.70;;
6436;SDS011;3251;53.550;9.918;2023-12-20T09:32:01;10.30;;;1.80;;
6436;SDS011;3251;53.550;9.918;2023-12-20T09:34:27;13.43;;;4.10;;
6436;SDS011;3251;53.550;9.918;2023-12-20T09:36:54;31.60;;;11.60;;
6436;SDS011;3251;53.550;9.918;2023-12-20T09:39:21;17.63;;;6.70;;
6436;SDS011;3251;53.550;9.918;2023-12-20T09:42:03;15.47;;;4.70;;
6436;SDS011;3251;53.550;9.918;2023-12-20T09:44:30;4.50;;;1.80;;
6436;SDS011;3251;53.550;9.918;2023-12-20T09:46:58;3.47;;;3.10;;
6436;SDS011;3251;53.550;9.918;2023-12-20T09:49:24;4.10;;;1.83;;
6436;SDS011;3251;53.550;9.918;2023-12-20T09:51:51;24.07;;;8.80;;
6436;SDS011;3251;53.550;9.918;2023-12-20T09:54:17;11.70;;;6.80;;
6436;SDS011;3251;53.550;9.918;2023-12-20T09:56:44;8.70;;;3.13;;
6436;SDS011;3251;53.550;9.918;2023-12-20T09:59:10;7.70;;;3.33;;
6436;SDS011;3251;53.550;9.918;2023-12-20T10:01:38;9.90;;;2.73;;
6436;SDS011;3251;53.550;9.918;2023-12-20T10:04:05;5.17;;;1.90;;
6436;SDS011;3251;53.550;9.918;2023-12-20T10:06:40;3.40;;;2.00;;
6436;SDS011;3251;53.550;9.918;2023-12-20T10:09:12;5.97;;;1.67;;
6436;SDS011;3251;53.550;9.918;2023-12-20T10:11:39;7.00;;;1.80;;
6436;SDS011;3251;53.550;9.918;2023-12-20T10:14:08;6.73;;;1.67;;
6436;SDS011;3251;53.550;9.918;2023-12-20T10:16:34;5.43;;;2.23;;
6436;SDS011;3251;53.550;9.918;2023-12-20T10:19:00;1.40;;;1.00;;
6436;SDS011;3251;53.550;9.918;2023-12-20T10:21:27;4.67;;;1.93;;
6436;SDS011;3251;53.550;9.918;2023-12-20T10:23:53;7.13;;;1.17;;
6436;SDS011;3251;53.550;9.918;2023-12-20T10:26:20;3.63;;;0.90;;
6436;SDS011;3251;53.550;9.918;2023-12-20T10:28:49;7.57;;;4.37;;
6436;SDS011;3251;53.550;9.918;2023-12-20T10:33:53;2.30;;;1.20;;
6436;SDS011;3251;53.550;9.918;2023-12-20T10:36:21;4.33;;;1.70;;
6436;SDS011;3251;53.550;9.918;2023-12-20T10:38:49;9.80;;;3.37;;
6436;SDS011;3251;53.550;9.918;2023-12-20T10:41:18;5.97;;;2.30;;
6436;SDS011;3251;53.550;9.918;2023-12-20T10:43:45;4.17;;;1.30;;
6436;SDS011;3251;53.550;9.918;2023-12-20T10:46:12;8.63;;;1.63;;
6436;SDS011;3251;53.550;9.918;2023-12-20T10:48:39;6.50;;;1.60;;
6436;SDS011;3251;53.550;9.918;2023-12-20T10:51:05;10.43;;;1.90;;
6436;SDS011;3251;53.550;9.918;2023-12-20T10:53:32;12.60;;;3.00;;
6436;SDS011;3251;53.550;9.918;2023-12-20T10:56:01;9.93;;;2.03;;
6436;SDS011;3251;53.550;9.918;2023-12-20T10:58:30;11.20;;;1.93;;
6436;SDS011;3251;53.550;9.918;2023-12-20T11:01:00;13.53;;;2.00;;
6436;SDS011;3251;53.550;9.918;2023-12-20T11:03:32;7.90;;;2.93;;
6436;SDS011;3251;53.550;9.918;2023-12-20T11:06:04;12.00;;;3.50;;
6436;SDS011;3251;53.550;9.918;2023-12-20T11:08:36;4.30;;;1.37;;
6436;SDS011;3251;53.550;9.918;2023-12-20T11:11:13;12.07;;;2.10;;
6436;SDS011;3251;53.550;9.918;2023-12-20T11:13:41;14.17;;;2.40;;
6436;SDS011;3251;53.550;9.918;2023-12-20T11:16:11;14.67;;;2.17;;
6436;SDS011;3251;53.550;9.918;2023-12-20T11:18:37;7.87;;;1.73;;
6436;SDS011;3251;53.550;9.918;2023-12-20T11:21:06;5.73;;;1.60;;
6436;SDS011;3251;53.550;9.918;2023-12-20T11:23:32;9.30;;;2.30;;
6436;SDS011;3251;53.550;9.918;2023-12-20T11:25:59;32.00;;;13.40;;
6436;SDS011;3251;53.550;9.918;2023-12-20T11:28:26;22.63;;;7.27;;
6436;SDS011;3251;53.550;9.918;2023-12-20T11:30:53;22.97;;;3.13;;
6436;SDS011;3251;53.550;9.918;2023-12-20T11:33:38;14.43;;;4.37;;
6436;SDS011;3251;53.550;9.918;2023-12-20T11:36:15;16.23;;;2.83;;
6436;SDS011;3251;53.550;9.918;2023-12-20T11:38:56;14.50;;;2.40;;
6436;SDS011;3251;53.550;9.918;2023-12-20T11:41:23;25.77;;;3.50;;
6436;SDS011;3251;53.550;9.918;2023-12-20T11:43:51;17.00;;;2.30;;
6436;SDS011;3251;53.550;9.918;2023-12-20T11:46:18;11.43;;;1.87;;
6436;SDS011;3251;53.550;9.918;2023-12-20T11:48:45;25.17;;;5.10;;
6436;SDS011;3251;53.550;9.918;2023-12-20T11:51:12;39.97;;;15.97;;
6436;SDS011;3251;53.550;9.918;2023-12-20T11:53:39;37.10;;;8.50;;
6436;SDS011;3251;53.550;9.918;2023-12-20T11:56:06;26.80;;;6.10;;
6436;SDS011;3251;53.550;9.918;2023-12-20T11:58:33;19.80;;;2.40;;
6436;SDS011;3251;53.550;9.918;2023-12-20T12:00:59;12.13;;;2.80;;
6436;SDS011;3251;53.550;9.918;2023-12-20T12:03:27;11.70;;;3.20;;
6436;SDS011;3251;53.550;9.918;2023-12-20T12:05:53;11.20;;;1.70;;
6436;SDS011;3251;53.550;9.918;2023-12-20T12:08:19;13.07;;;1.70;;
6436;SDS011;3251;53.550;9.918;2023-12-20T12:10:46;9.83;;;2.43;;
6436;SDS011;3251;53.550;9.918;2023-12-20T12:13:15;10.13;;;2.23;;
6436;SDS011;3251;53.550;9.918;2023-12-20T12:15:41;13.63;;;2.20;;
6436;SDS011;3251;53.550;9.918;2023-12-20T12:18:08;7.13;;;1.53;;
6436;SDS011;3251;53.550;9.918;2023-12-20T12:20:35;4.37;;;1.23;;
6436;SDS011;3251;53.550;9.918;2023-12-20T12:23:02;21.30;;;3.00;;
6436;SDS011;3251;53.550;9.918;2023-12-20T12:25:29;14.57;;;2.57;;
6436;SDS011;3251;53.550;9.918;2023-12-20T12:27:58;11.43;;;2.70;;
6436;SDS011;3251;53.550;9.918;2023-12-20T12:30:25;16.73;;;2.40;;
6436;SDS011;3251;53.550;9.918;2023-12-20T12:32:52;16.60;;;3.20;;
6436;SDS011;3251;53.550;9.918;2023-12-20T12:35:18;13.07;;;2.80;;
6436;SDS011;3251;53.550;9.918;2023-12-20T12:37:45;8.77;;;1.67;;
6436;SDS011;3251;53.550;9.918;2023-12-20T12:40:15;13.57;;;3.10;;
6436;SDS011;3251;53.550;9.918;2023-12-20T12:42:42;10.10;;;1.90;;
6436;SDS011;3251;53.550;9.918;2023-12-20T12:45:08;9.57;;;2.03;;
6436;SDS011;3251;53.550;9.918;2023-12-20T12:47:36;19.07;;;1.70;;
6436;SDS011;3251;53.550;9.918;2023-12-20T12:50:03;20.43;;;2.20;;
6436;SDS011;3251;53.550;9.918;2023-12-20T12:52:30;17.13;;;1.70;;
6436;SDS011;3251;53.550;9.918;2023-12-20T12:54:56;18.70;;;1.87;;
6436;SDS011;3251;53.550;9.918;2023-12-20T12:57:22;25.03;;;2.30;;
6436;SDS011;3251;53.550;9.918;2023-12-20T12:59:49;6.73;;;1.50;;
6436;SDS011;3251;53.550;9.918;2023-12-20T13:02:15;12.10;;;2.77;;
6436;SDS011;3251;53.550;9.918;2023-12-20T13:04:42;15.37;;;2.93;;
6436;SDS011;3251;53.550;9.918;2023-12-20T13:07:09;12.87;;;2.20;;
6436;SDS011;3251;53.550;9.918;2023-12-20T13:09:39;16.30;;;2.40;;
6436;SDS011;3251;53.550;9.918;2023-12-20T13:12:05;26.30;;;4.20;;
6436;SDS011;3251;53.550;9.918;2023-12-20T13:14:33;14.67;;;2.33;;
6436;SDS011;3251;53.550;9.918;2023-12-20T13:17:00;35.80;;;3.13;;
6436;SDS011;3251;53.550;9.918;2023-12-20T13:19:26;21.30;;;2.90;;
6436;SDS011;3251;53.550;9.918;2023-12-20T13:21:53;19.40;;;3.10;;
6436;SDS011;3251;53.550;9.918;2023-12-20T13:24:19;40.33;;;4.80;;
6436;SDS011;3251;53.550;9.918;2023-12-20T13:26:45;17.90;;;2.90;;
6436;SDS011;3251;53.550;9.918;2023-12-20T13:29:12;23.93;;;3.50;;
6436;SDS011;3251;53.550;9.918;2023-12-20T13:31:38;18.47;;;2.93;;
6436;SDS011;3251;53.550;9.918;2023-12-20T13:34:05;26.30;;;2.80;;
6436;SDS011;3251;53.550;9.918;2023-12-20T13:36:31;20.23;;;3.17;;
6436;SDS011;3251;53.550;9.918;2023-12-20T13:38:57;35.13;;;4.03;;
6436;SDS011;3251;53.550;9.918;2023-12-20T13:41:24;26.57;;;2.80;;
6436;SDS011;3251;53.550;9.918;2023-12-20T13:43:50;25.67;;;5.60;;
6436;SDS011;3251;53.550;9.918;2023-12-20T13:46:16;29.10;;;4.80;;
6436;SDS011;3251;53.550;9.918;2023-12-20T13:48:42;11.10;;;2.30;;
6436;SDS011;3251;53.550;9.918;2023-12-20T13:51:08;18.37;;;2.33;;
6436;SDS011;3251;53.550;9.918;2023-12-20T13:53:34;27.17;;;2.63;;
6436;SDS011;3251;53.550;9.918;2023-12-20T13:56:01;28.73;;;6.10;;
6436;SDS011;3251;53.550;9.918;2023-12-20T13:58:27;17.40;;;3.97;;
6436;SDS011;3251;53.550;9.918;2023-12-20T14:00:53;23.77;;;3.80;;
6436;SDS011;3251;53.550;9.918;2023-12-20T14:03:19;8.00;;;3.47;;
6436;SDS011;3251;53.550;9.918;2023-12-20T14:05:45;12.00;;;3.33;;
6436;SDS011;3251;53.550;9.918;2023-12-20T14:08:12;15.27;;;3.73;;
6436;SDS011;3251;53.550;9.918;2023-12-20T14:10:38;20.40;;;3.50;;
6436;SDS011;3251;53.550;9.918;2023-12-20T14:13:04;24.53;;;4.40;;
6436;SDS011;3251;53.550;9.918;2023-12-20T14:15:30;25.90;;;4.23;;
6436;SDS011;3251;53.550;9.918;2023-12-20T14:18:05;19.73;;;3.07;;
6436;SDS011;3251;53.550;9.918;2023-12-20T14:20:32;19.20;;;4.07;;
6436;SDS011;3251;53.550;9.918;2023-12-20T14:23:02;17.13;;;3.43;;
6436;SDS011;3251;53.550;9.918;2023-12-20T14:25:29;17.40;;;4.30;;
6436;SDS011;3251;53.550;9.918;2023-12-20T14:27:56;28.23;;;4.80;;
6436;SDS011;3251;53.550;9.918;2023-12-20T14:30:23;35.30;;;6.20;;
6436;SDS011;3251;53.550;9.918;2023-12-20T14:32:49;19.43;;;3.70;;
6436;SDS011;3251;53.550;9.918;2023-12-20T14:35:15;21.60;;;5.07;;
6436;SDS011;3251;53.550;9.918;2023-12-20T14:37:41;24.40;;;3.90;;
6436;SDS011;3251;53.550;9.918;2023-12-20T14:40:08;12.80;;;3.60;;
6436;SDS011;3251;53.550;9.918;2023-12-20T14:42:44;27.97;;;4.30;;
6436;SDS011;3251;53.550;9.918;2023-12-20T14:45:10;24.70;;;3.93;;
6436;SDS011;3251;53.550;9.918;2023-12-20T14:47:40;40.93;;;4.70;;
6436;SDS011;3251;53.550;9.918;2023-12-20T14:50:07;18.53;;;3.50;;
6436;SDS011;3251;53.550;9.918;2023-12-20T14:52:33;34.57;;;4.60;;
6436;SDS011;3251;53.550;9.918;2023-12-20T14:55:00;27.93;;;3.63;;
6436;SDS011;3251;53.550;9.918;2023-12-20T14:57:27;17.97;;;3.67;;
6436;SDS011;3251;53.550;9.918;2023-12-20T14:59:55;16.17;;;4.50;;
6436;SDS011;3251;53.550;9.918;2023-12-20T15:02:21;20.13;;;4.47;;
6436;SDS011;3251;53.550;9.918;2023-12-20T15:04:47;23.87;;;4.37;;
6436;SDS011;3251;53.550;9.918;2023-12-20T15:07:13;21.17;;;3.93;;
6436;SDS011;3251;53.550;9.918;2023-12-20T15:09:39;20.33;;;4.30;;
6436;SDS011;3251;53.550;9.918;2023-12-20T15:12:10;44.37;;;4.60;;
6436;SDS011;3251;53.550;9.918;2023-12-20T15:14:37;27.63;;;4.30;;
6436;SDS011;3251;53.550;9.918;2023-12-20T15:17:03;15.70;;;3.83;;
6436;SDS011;3251;53.550;9.918;2023-12-20T15:19:30;21.67;;;5.27;;
6436;SDS011;3251;53.550;9.918;2023-12-20T15:21:56;20.40;;;3.80;;
6436;SDS011;3251;53.550;9.918;2023-12-20T15:24:25;59.17;;;5.30;;
6436;SDS011;3251;53.550;9.918;2023-12-20T15:27:03;20.30;;;3.80;;
6436;SDS011;3251;53.550;9.918;2023-12-20T15:29:29;21.87;;;3.30;;
6436;SDS011;3251;53.550;9.918;2023-12-20T15:31:56;14.90;;;3.67;;
6436;SDS011;3251;53.550;9.918;2023-12-20T15:34:22;24.83;;;9.67;;
6436;SDS011;3251;53.550;9.918;2023-12-20T15:36:48;41.57;;;12.53;;
6436;SDS011;3251;53.550;9.918;2023-12-20T15:39:14;18.63;;;5.60;;
6436;SDS011;3251;53.550;9.918;2023-12-20T15:41:41;27.53;;;6.27;;
6436;SDS011;3251;53.550;9.918;2023-12-20T15:44:07;25.77;;;6.53;;
6436;SDS011;3251;53.550;9.918;2023-12-20T15:46:33;19.07;;;5.20;;
6436;SDS011;3251;53.550;9.918;2023-12-20T15:48:59;34.33;;;5.17;;
6436;SDS011;3251;53.550;9.918;2023-12-20T15:51:26;17.80;;;4.83;;
6436;SDS011;3251;53.550;9.918;2023-12-20T15:53:52;12.83;;;2.97;;
6436;SDS011;3251;53.550;9.918;2023-12-20T15:56:18;22.40;;;7.27;;
6436;SDS011;3251;53.550;9.918;2023-12-20T15:58:45;35.07;;;8.40;;
6436;SDS011;3251;53.550;9.918;2023-12-20T16:01:13;19.63;;;7.40;;
6436;SDS011;3251;53.550;9.918;2023-12-20T16:03:39;26.37;;;7.67;;
6436;SDS011;3251;53.550;9.918;2023-12-20T16:06:05;18.33;;;5.50;;
6436;SDS011;3251;53.550;9.918;2023-12-20T16:08:32;27.07;;;7.20;;
6436;SDS011;3251;53.550;9.918;2023-12-20T16:10:58;27.03;;;5.50;;
6436;SDS011;3251;53.550;9.918;2023-12-20T16:13:24;44.33;;;10.20;;
6436;SDS011;3251;53.550;9.918;2023-12-20T16:15:51;33.00;;;13.50;;
6436;SDS011;3251;53.550;9.918;2023-12-20T16:18:17;30.40;;;6.70;;
6436;SDS011;3251;53.550;9.918;2023-12-20T16:20:43;32.70;;;6.73;;
6436;SDS011;3251;53.550;9.918;2023-12-20T16:23:09;39.20;;;8.23;;
6436;SDS011;3251;53.550;9.918;2023-12-20T16:25:35;13.47;;;5.97;;
6436;SDS011;3251;53.550;9.918;2023-12-20T16:28:05;23.10;;;4.93;;
6436;SDS011;3251;53.550;9.918;2023-12-20T16:30:31;10.43;;;4.10;;
6436;SDS011;3251;53.550;9.918;2023-12-20T16:32:57;15.43;;;4.40;;
6436;SDS011;3251;53.550;9.918;2023-12-20T16:35:24;27.17;;;3.80;;
6436;SDS011;3251;53.550;9.918;2023-12-20T16:37:50;11.40;;;3.30;;
6436;SDS011;3251;53.550;9.918;2023-12-20T16:40:16;18.03;;;5.00;;
6436;SDS011;3251;53.550;9.918;2023-12-20T16:42:49;6.47;;;2.30;;
6436;SDS011;3251;53.550;9.918;2023-12-20T16:45:16;24.70;;;4.00;;
6436;SDS011;3251;53.550;9.918;2023-12-20T16:47:42;13.30;;;2.37;;
6436;SDS011;3251;53.550;9.918;2023-12-20T16:50:08;13.17;;;3.33;;
6436;SDS011;3251;53.550;9.918;2023-12-20T16:52:35;25.67;;;3.57;;
6436;SDS011;3251;53.550;9.918;2023-12-20T16:55:04;10.30;;;3.10;;
6436;SDS011;3251;53.550;9.918;2023-12-20T16:57:30;16.27;;;2.63;;
6436;SDS011;3251;53.550;9.918;2023-12-20T16:59:56;12.23;;;2.80;;
6436;SDS011;3251;53.550;9.918;2023-12-20T17:02:23;4.83;;;2.77;;
6436;SDS011;3251;53.550;9.918;2023-12-20T17:04:49;7.87;;;2.00;;
6436;SDS011;3251;53.550;9.918;2023-12-20T17:07:15;17.03;;;2.33;;
6436;SDS011;3251;53.550;9.918;2023-12-20T17:09:42;7.33;;;2.37;;
6436;SDS011;3251;53.550;9.918;2023-12-20T17:12:09;14.10;;;2.50;;
6436;SDS011;3251;53.550;9.918;2023-12-20T17:14:35;13.07;;;3.40;;
6436;SDS011;3251;53.550;9.918;2023-12-20T17:17:02;12.40;;;3.10;;
6436;SDS011;3251;53.550;9.918;2023-12-20T17:19:28;15.97;;;3.60;;
6436;SDS011;3251;53.550;9.918;2023-12-20T17:21:56;20.30;;;3.57;;
6436;SDS011;3251;53.550;9.918;2023-12-20T17:24:23;17.77;;;3.07;;
6436;SDS011;3251;53.550;9.918;2023-12-20T17:26:49;27.33;;;2.87;;
6436;SDS011;3251;53.550;9.918;2023-12-20T17:29:15;15.03;;;3.93;;
6436;SDS011;3251;53.550;9.918;2023-12-20T17:31:41;14.53;;;2.70;;
6436;SDS011;3251;53.550;9.918;2023-12-20T17:34:10;13.40;;;3.47;;
6436;SDS011;3251;53.550;9.918;2023-12-20T17:36:40;28.43;;;4.40;;
6436;SDS011;3251;53.550;9.918;2023-12-20T17:39:07;22.23;;;7.27;;
6436;SDS011;3251;53.550;9.918;2023-12-20T17:41:33;23.37;;;8.83;;
6436;SDS011;3251;53.550;9.918;2023-12-20T17:44:00;40.53;;;7.07;;
6436;SDS011;3251;53.550;9.918;2023-12-20T17:46:27;28.13;;;8.30;;
6436;SDS011;3251;53.550;9.918;2023-12-20T17:48:53;32.50;;;9.77;;
6436;SDS011;3251;53.550;9.918;2023-12-20T17:51:21;21.03;;;6.07;;
6436;SDS011;3251;53.550;9.918;2023-12-20T17:53:47;23.97;;;6.07;;
6436;SDS011;3251;53.550;9.918;2023-12-20T17:56:15;28.07;;;6.13;;
6436;SDS011;3251;53.550;9.918;2023-12-20T17:58:41;24.33;;;3.90;;
6436;SDS011;3251;53.550;9.918;2023-12-20T18:01:07;18.83;;;3.87;;
6436;SDS011;3251;53.550;9.918;2023-12-20T18:03:33;25.70;;;4.73;;
6436;SDS011;3251;53.550;9.918;2023-12-20T18:05:59;25.13;;;6.03;;
6436;SDS011;3251;53.550;9.918;2023-12-20T18:08:26;11.10;;;3.27;;
6436;SDS011;3251;53.550;9.918;2023-12-20T18:10:52;15.40;;;2.00;;
6436;SDS011;3251;53.550;9.918;2023-12-20T18:13:18;12.50;;;2.43;;
6436;SDS011;3251;53.550;9.918;2023-12-20T18:15:44;13.60;;;3.47;;
6436;SDS011;3251;53.550;9.918;2023-12-20T18:18:10;16.33;;;4.10;;
6436;SDS011;3251;53.550;9.918;2023-12-20T18:20:37;28.23;;;4.43;;
6436;SDS011;3251;53.550;9.918;2023-12-20T18:23:04;14.77;;;3.07;;
6436;SDS011;3251;53.550;9.918;2023-12-20T18:25:30;14.00;;;2.70;;
6436;SDS011;3251;53.550;9.918;2023-12-20T18:27:56;23.03;;;2.87;;
6436;SDS011;3251;53.550;9.918;2023-12-20T18:30:22;17.13;;;4.53;;
6436;SDS011;3251;53.550;9.918;2023-12-20T18:32:49;14.03;;;2.73;;
6436;SDS011;3251;53.550;9.918;2023-12-20T18:35:15;17.73;;;3.57;;
6436;SDS011;3251;53.550;9.918;2023-12-20T18:37:42;19.43;;;3.80;;
6436;SDS011;3251;53.550;9.918;2023-12-20T18:40:08;13.37;;;1.83;;
6436;SDS011;3251;53.550;9.918;2023-12-20T18:42:36;11.17;;;2.03;;
6436;SDS011;3251;53.550;9.918;2023-12-20T18:45:02;14.87;;;2.70;;
6436;SDS011;3251;53.550;9.918;2023-12-20T18:47:31;3.60;;;1.97;;
6436;SDS011;3251;53.550;9.918;2023-12-20T18:49:57;4.77;;;2.43;;
6436;SDS011;3251;53.550;9.918;2023-12-20T18:52:27;32.43;;;3.63;;
6436;SDS011;3251;53.550;9.918;2023-12-20T18:54:53;14.03;;;2.60;;
6436;SDS011;3251;53.550;9.918;2023-12-20T18:57:19;29.10;;;3.60;;
6436;SDS011;3251;53.550;9.918;2023-12-20T18:59:45;11.23;;;3.83;;
6436;SDS011;3251;53.550;9.918;2023-12-20T19:02:11;6.13;;;2.60;;
6436;SDS011;3251;53.550;9.918;2023-12-20T19:04:38;17.43;;;2.77;;
6436;SDS011;3251;53.550;9.918;2023-12-20T19:07:04;5.77;;;1.67;;
6436;SDS011;3251;53.550;9.918;2023-12-20T19:09:30;11.87;;;2.13;;
6436;SDS011;3251;53.550;9.918;2023-12-20T19:11:56;6.40;;;1.63;;
6436;SDS011;3251;53.550;9.918;2023-12-20T19:14:22;6.63;;;2.00;;
6436;SDS011;3251;53.550;9.918;2023-12-20T19:16:49;10.50;;;3.10;;
6436;SDS011;3251;53.550;9.918;2023-12-20T19:19:15;14.77;;;2.60;;
6436;SDS011;3251;53.550;9.918;2023-12-20T19:21:41;22.43;;;2.83;;
6436;SDS011;3251;53.550;9.918;2023-12-20T19:24:08;8.90;;;1.77;;
6436;SDS011;3251;53.550;9.918;2023-12-20T19:26:34;12.20;;;2.73;;
6436;SDS011;3251;53.550;9.918;2023-12-20T19:29:00;10.60;;;2.27;;
6436;SDS011;3251;53.550;9.918;2023-12-20T19:31:26;2.03;;;1.40;;
6436;SDS011;3251;53.550;9.918;2023-12-20T19:33:52;4.40;;;1.80;;
6436;SDS011;3251;53.550;9.918;2023-12-20T19:36:21;13.23;;;2.03;;
6436;SDS011;3251;53.550;9.918;2023-12-20T19:38:47;4.70;;;1.80;;
6436;SDS011;3251;53.550;9.918;2023-12-20T19:41:13;12.33;;;2.30;;
6436;SDS011;3251;53.550;9.918;2023-12-20T19:43:41;12.17;;;2.37;;
6436;SDS011;3251;53.550;9.918;2023-12-20T19:46:07;17.13;;;1.83;;
6436;SDS011;3251;53.550;9.918;2023-12-20T19:48:34;9.80;;;2.13;;
6436;SDS011;3251;53.550;9.918;2023-12-20T19:51:00;7.93;;;1.97;;
6436;SDS011;3251;53.550;9.918;2023-12-20T19:53:27;12.30;;;1.80;;
6436;SDS011;3251;53.550;9.918;2023-12-20T19:55:53;6.03;;;2.10;;
6436;SDS011;3251;53.550;9.918;2023-12-20T19:58:19;7.40;;;2.20;;
6436;SDS011;3251;53.550;9.918;2023-12-20T20:00:45;10.33;;;1.73;;
6436;SDS011;3251;53.550;9.918;2023-12-20T20:03:12;5.33;;;2.00;;
6436;SDS011;3251;53.550;9.918;2023-12-20T20:05:38;9.67;;;1.77;;
6436;SDS011;3251;53.550;9.918;2023-12-20T20:08:04;6.80;;;1.93;;
6436;SDS011;3251;53.550;9.918;2023-12-20T20:10:30;7.80;;;2.33;;
6436;SDS011;3251;53.550;9.918;2023-12-20T20:12:57;6.00;;;1.50;;
6436;SDS011;3251;53.550;9.918;2023-12-20T20:15:23;4.07;;;1.80;;
6436;SDS011;3251;53.550;9.918;2023-12-20T20:17:49;29.10;;;2.30;;
6436;SDS011;3251;53.550;9.918;2023-12-20T20:20:15;8.90;;;2.70;;
6436;SDS011;3251;53.550;9.918;2023-12-20T20:22:41;28.33;;;6.10;;
6436;SDS011;3251;53.550;9.918;2023-12-20T20:25:07;18.60;;;7.60;;
6436;SDS011;3251;53.550;9.918;2023-12-20T20:27:33;16.57;;;4.53;;
6436;SDS011;3251;53.550;9.918;2023-12-20T20:30:00;17.73;;;4.97;;
6436;SDS011;3251;53.550;9.918;2023-12-20T20:32:26;6.70;;;3.83;;
6436;SDS011;3251;53.550;9.918;2023-12-20T20:34:53;19.97;;;4.17;;
6436;SDS011;3251;53.550;9.918;2023-12-20T20:37:19;13.43;;;4.13;;
6436;SDS011;3251;53.550;9.918;2023-12-20T20:39:45;23.10;;;4.67;;
6436;SDS011;3251;53.550;9.918;2023-12-20T20:42:12;14.03;;;3.97;;
6436;SDS011;3251;53.550;9.918;2023-12-20T20:44:38;12.13;;;3.83;;
6436;SDS011;3251;53.550;9.918;2023-12-20T20:47:04;16.70;;;3.53;;
6436;SDS011;3251;53.550;9.918;2023-12-20T20:49:30;10.17;;;4.00;;
6436;SDS011;3251;53.550;9.918;2023-12-20T20:51:56;5.93;;;3.53;;
6436;SDS011;3251;53.550;9.918;2023-12-20T20:54:22;9.10;;;3.60;;
6436;SDS011;3251;53.550;9.918;2023-12-20T20:56:49;8.80;;;3.10;;
6436;SDS011;3251;53.550;9.918;2023-12-20T20:59:15;12.57;;;3.80;;
6436;SDS011;3251;53.550;9.918;2023-12-20T21:01:41;16.43;;;3.63;;